sensor_id;sensor_type;location;lat;lon;timestamp;pressure;altitude;pressure_sealevel;temperature
35582;BMP180;21687;48.900;9.188;2022-11-20T00:01:28;97898.00;;;3.20
35582;BMP180;21687;48.900;9.188;2022-11-20T00:03:56;97890.00;;;3.20
35582;BMP180;21687;48.900;9.188;2022-11-20T00:06:24;97899.00;;;3.20
35582;BMP180;21687;48.900;9.188;2022-11-20T00:08:51;97888.00;;;3.30
35582;BMP180;21687;48.900;9.188;2022-11-20T00:11:21;97890.00;;;3.20
35582;BMP180;21687;48.900;9.188;2022-11-20T00:13:50;97893.00;;;3.30
35582;BMP180;21687;48.900;9.188;2022-11-20T00:16:19;97896.00;;;3.40
35582;BMP180;21687;48.900;9.188;2022-11-20T00:18:46;97901.00;;;3.40
35582;BMP180;21687;48.900;9.188;2022-11-20T00:21:23;97900.00;;;3.50
35582;BMP180;21687;48.900;9.188;2022-11-20T00:23:51;97905.00;;;3.50
35582;BMP180;21687;48.900;9.188;2022-11-20T00:26:19;97898.00;;;3.50
35582;BMP180;21687;48.900;9.188;2022-11-20T00:28:51;97897.00;;;3.40
35582;BMP180;21687;48.900;9.188;2022-11-20T00:31:18;97901.00;;;3.30
35582;BMP180;21687;48.900;9.188;2022-11-20T00:33:45;97889.00;;;3.40
35582;BMP180;21687;48.900;9.188;2022-11-20T00:36:14;97898.00;;;3.40
35582;BMP180;21687;48.900;9.188;2022-11-20T00:38:41;97891.00;;;3.40
35582;BMP180;21687;48.900;9.188;2022-11-20T00:41:09;97899.00;;;3.50
35582;BMP180;21687;48.900;9.188;2022-11-20T00:43:37;97895.00;;;3.50
35582;BMP180;21687;48.900;9.188;2022-11-20T00:48:29;97887.00;;;3.50
35582;BMP180;21687;48.900;9.188;2022-11-20T00:50:56;97891.00;;;3.50
35582;BMP180;21687;48.900;9.188;2022-11-20T00:53:23;97891.00;;;3.50
35582;BMP180;21687;48.900;9.188;2022-11-20T00:55:56;97893.00;;;3.50
35582;BMP180;21687;48.900;9.188;2022-11-20T00:58:24;97883.00;;;3.50
35582;BMP180;21687;48.900;9.188;2022-11-20T01:00:50;97891.00;;;3.50
35582;BMP180;21687;48.900;9.188;2022-11-20T01:03:17;97895.00;;;3.50
35582;BMP180;21687;48.900;9.188;2022-11-20T01:05:44;97898.00;;;3.50
35582;BMP180;21687;48.900;9.188;2022-11-20T01:08:10;97898.00;;;3.40
35582;BMP180;21687;48.900;9.188;2022-11-20T01:10:37;97897.00;;;3.50
35582;BMP180;21687;48.900;9.188;2022-11-20T01:13:03;97895.00;;;3.40
35582;BMP180;21687;48.900;9.188;2022-11-20T01:15:48;97892.00;;;3.40
35582;BMP180;21687;48.900;9.188;2022-11-20T01:18:14;97905.00;;;3.40
35582;BMP180;21687;48.900;9.188;2022-11-20T01:20:40;97903.00;;;3.40
35582;BMP180;21687;48.900;9.188;2022-11-20T01:23:06;97899.00;;;3.40
35582;BMP180;21687;48.900;9.188;2022-11-20T01:25:34;97900.00;;;3.40
35582;BMP180;21687;48.900;9.188;2022-11-20T01:28:00;97910.00;;;3.50
35582;BMP180;21687;48.900;9.188;2022-11-20T01:30:27;97911.00;;;3.60
35582;BMP180;21687;48.900;9.188;2022-11-20T01:32:55;97911.00;;;3.60
35582;BMP180;21687;48.900;9.188;2022-11-20T01:35:21;97908.00;;;3.50
35582;BMP180;21687;48.900;9.188;2022-11-20T01:37:49;97912.00;;;3.50
35582;BMP180;21687;48.900;9.188;2022-11-20T01:40:15;97897.00;;;3.60
35582;BMP180;21687;48.900;9.188;2022-11-20T01:42:51;97911.00;;;3.60
35582;BMP180;21687;48.900;9.188;2022-11-20T01:48:11;97903.00;;;3.50
35582;BMP180;21687;48.900;9.188;2022-11-20T01:50:38;97906.00;;;3.50
35582;BMP180;21687;48.900;9.188;2022-11-20T01:53:08;97906.00;;;3.50
35582;BMP180;21687;48.900;9.188;2022-11-20T01:55:41;97902.00;;;3.60
35582;BMP180;21687;48.900;9.188;2022-11-20T01:58:09;97912.00;;;3.60
35582;BMP180;21687;48.900;9.188;2022-11-20T02:00:36;97899.00;;;3.60
35582;BMP180;21687;48.900;9.188;2022-11-20T02:03:07;97905.00;;;3.70
35582;BMP180;21687;48.900;9.188;2022-11-20T02:06:26;97902.00;;;3.70
35582;BMP180;21687;48.900;9.188;2022-11-20T02:08:26;97910.00;;;3.80
35582;BMP180;21687;48.900;9.188;2022-11-20T02:10:54;97918.00;;;3.80
35582;BMP180;21687;48.900;9.188;2022-11-20T02:13:20;97908.00;;;3.90
35582;BMP180;21687;48.900;9.188;2022-11-20T02:16:10;97904.00;;;3.90
35582;BMP180;21687;48.900;9.188;2022-11-20T02:18:38;97907.00;;;3.90
35582;BMP180;21687;48.900;9.188;2022-11-20T02:24:01;97900.00;;;4.00
35582;BMP180;21687;48.900;9.188;2022-11-20T02:26:30;97905.00;;;4.10
35582;BMP180;21687;48.900;9.188;2022-11-20T02:28:57;97890.00;;;4.10
35582;BMP180;21687;48.900;9.188;2022-11-20T02:31:24;97893.00;;;4.10
35582;BMP180;21687;48.900;9.188;2022-11-20T02:33:57;97891.00;;;4.20
35582;BMP180;21687;48.900;9.188;2022-11-20T02:36:26;97892.00;;;4.20
35582;BMP180;21687;48.900;9.188;2022-11-20T02:38:53;97895.00;;;4.20
35582;BMP180;21687;48.900;9.188;2022-11-20T02:41:19;97896.00;;;4.30
35582;BMP180;21687;48.900;9.188;2022-11-20T02:43:46;97899.00;;;4.30
35582;BMP180;21687;48.900;9.188;2022-11-20T02:46:12;97904.00;;;4.30
35582;BMP180;21687;48.900;9.188;2022-11-20T02:48:38;97899.00;;;4.40
35582;BMP180;21687;48.900;9.188;2022-11-20T02:51:04;97903.00;;;4.40
35582;BMP180;21687;48.900;9.188;2022-11-20T02:53:31;97890.00;;;4.40
35582;BMP180;21687;48.900;9.188;2022-11-20T02:55:57;97890.00;;;4.40
35582;BMP180;21687;48.900;9.188;2022-11-20T02:58:23;97892.00;;;4.40
35582;BMP180;21687;48.900;9.188;2022-11-20T03:00:49;97888.00;;;4.40
35582;BMP180;21687;48.900;9.188;2022-11-20T03:03:15;97895.00;;;4.40
35582;BMP180;21687;48.900;9.188;2022-11-20T03:05:42;97888.00;;;4.40
35582;BMP180;21687;48.900;9.188;2022-11-20T03:08:08;97893.00;;;4.40
35582;BMP180;21687;48.900;9.188;2022-11-20T03:13:13;97888.00;;;4.50
35582;BMP180;21687;48.900;9.188;2022-11-20T03:15:39;97887.00;;;4.50
35582;BMP180;21687;48.900;9.188;2022-11-20T03:18:06;97885.00;;;4.50
35582;BMP180;21687;48.900;9.188;2022-11-20T03:20:33;97874.00;;;4.50
35582;BMP180;21687;48.900;9.188;2022-11-20T03:23:00;97881.00;;;4.50
35582;BMP180;21687;48.900;9.188;2022-11-20T03:25:27;97882.00;;;4.50
35582;BMP180;21687;48.900;9.188;2022-11-20T03:27:54;97875.00;;;4.40
35582;BMP180;21687;48.900;9.188;2022-11-20T03:30:20;97878.00;;;4.40
35582;BMP180;21687;48.900;9.188;2022-11-20T03:32:47;97880.00;;;4.40
35582;BMP180;21687;48.900;9.188;2022-11-20T03:35:13;97877.00;;;4.40
35582;BMP180;21687;48.900;9.188;2022-11-20T03:37:39;97871.00;;;4.50
35582;BMP180;21687;48.900;9.188;2022-11-20T03:40:06;97875.00;;;4.40
35582;BMP180;21687;48.900;9.188;2022-11-20T03:42:33;97878.00;;;4.40
35582;BMP180;21687;48.900;9.188;2022-11-20T03:45:13;97882.00;;;4.40
35582;BMP180;21687;48.900;9.188;2022-11-20T03:47:40;97870.00;;;4.50
35582;BMP180;21687;48.900;9.188;2022-11-20T03:50:08;97874.00;;;4.50
35582;BMP180;21687;48.900;9.188;2022-11-20T03:52:34;97872.00;;;4.50
35582;BMP180;21687;48.900;9.188;2022-11-20T03:55:00;97865.00;;;4.50
35582;BMP180;21687;48.900;9.188;2022-11-20T03:57:27;97875.00;;;4.60
35582;BMP180;21687;48.900;9.188;2022-11-20T03:59:53;97881.00;;;4.60
35582;BMP180;21687;48.900;9.188;2022-11-20T04:02:19;97873.00;;;4.60
35582;BMP180;21687;48.900;9.188;2022-11-20T04:04:47;97874.00;;;4.60
35582;BMP180;21687;48.900;9.188;2022-11-20T04:07:13;97869.00;;;4.60
35582;BMP180;21687;48.900;9.188;2022-11-20T04:09:40;97866.00;;;4.60
35582;BMP180;21687;48.900;9.188;2022-11-20T04:12:06;97863.00;;;4.60
35582;BMP180;21687;48.900;9.188;2022-11-20T04:14:33;97867.00;;;4.60
35582;BMP180;21687;48.900;9.188;2022-11-20T04:16:59;97870.00;;;4.60
35582;BMP180;21687;48.900;9.188;2022-11-20T04:19:27;97869.00;;;4.60
35582;BMP180;21687;48.900;9.188;2022-11-20T04:21:53;97869.00;;;4.60
35582;BMP180;21687;48.900;9.188;2022-11-20T04:24:20;97870.00;;;4.60
35582;BMP180;21687;48.900;9.188;2022-11-20T04:26:46;97865.00;;;4.50
35582;BMP180;21687;48.900;9.188;2022-11-20T04:29:14;97868.00;;;4.50
35582;BMP180;21687;48.900;9.188;2022-11-20T04:31:41;97867.00;;;4.50
35582;BMP180;21687;48.900;9.188;2022-11-20T04:34:10;97866.00;;;4.40
35582;BMP180;21687;48.900;9.188;2022-11-20T04:36:37;97866.00;;;4.40
35582;BMP180;21687;48.900;9.188;2022-11-20T04:39:05;97871.00;;;4.40
35582;BMP180;21687;48.900;9.188;2022-11-20T04:41:34;97869.00;;;4.40
35582;BMP180;21687;48.900;9.188;2022-11-20T04:44:04;97873.00;;;4.40
35582;BMP180;21687;48.900;9.188;2022-11-20T04:46:33;97872.00;;;4.40
35582;BMP180;21687;48.900;9.188;2022-11-20T04:49:00;97868.00;;;4.40
35582;BMP180;21687;48.900;9.188;2022-11-20T04:51:29;97867.00;;;4.50
35582;BMP180;21687;48.900;9.188;2022-11-20T04:53:55;97857.00;;;4.50
35582;BMP180;21687;48.900;9.188;2022-11-20T04:56:22;97868.00;;;4.40
35582;BMP180;21687;48.900;9.188;2022-11-20T04:58:49;97870.00;;;4.40
35582;BMP180;21687;48.900;9.188;2022-11-20T05:01:21;97866.00;;;4.40
35582;BMP180;21687;48.900;9.188;2022-11-20T05:03:47;97858.00;;;4.50
35582;BMP180;21687;48.900;9.188;2022-11-20T05:06:17;97864.00;;;4.50
35582;BMP180;21687;48.900;9.188;2022-11-20T05:08:45;97864.00;;;4.50
35582;BMP180;21687;48.900;9.188;2022-11-20T05:11:17;97863.00;;;4.60
35582;BMP180;21687;48.900;9.188;2022-11-20T05:13:44;97860.00;;;4.60
35582;BMP180;21687;48.900;9.188;2022-11-20T05:16:21;97867.00;;;4.60
35582;BMP180;21687;48.900;9.188;2022-11-20T05:18:49;97860.00;;;4.60
35582;BMP180;21687;48.900;9.188;2022-11-20T05:21:16;97862.00;;;4.60
35582;BMP180;21687;48.900;9.188;2022-11-20T05:23:44;97866.00;;;4.60
35582;BMP180;21687;48.900;9.188;2022-11-20T05:26:19;97868.00;;;4.70
35582;BMP180;21687;48.900;9.188;2022-11-20T05:28:51;97874.00;;;4.70
35582;BMP180;21687;48.900;9.188;2022-11-20T05:31:22;97862.00;;;4.70
35582;BMP180;21687;48.900;9.188;2022-11-20T05:33:49;97866.00;;;4.70
35582;BMP180;21687;48.900;9.188;2022-11-20T05:36:16;97875.00;;;4.70
35582;BMP180;21687;48.900;9.188;2022-11-20T05:38:43;97870.00;;;4.80
35582;BMP180;21687;48.900;9.188;2022-11-20T05:41:15;97866.00;;;4.80
35582;BMP180;21687;48.900;9.188;2022-11-20T05:43:43;97861.00;;;4.70
35582;BMP180;21687;48.900;9.188;2022-11-20T05:46:12;97855.00;;;4.70
35582;BMP180;21687;48.900;9.188;2022-11-20T05:48:40;97857.00;;;4.70
35582;BMP180;21687;48.900;9.188;2022-11-20T05:51:10;97853.00;;;4.70
35582;BMP180;21687;48.900;9.188;2022-11-20T05:53:38;97850.00;;;4.70
35582;BMP180;21687;48.900;9.188;2022-11-20T05:56:07;97849.00;;;4.80
35582;BMP180;21687;48.900;9.188;2022-11-20T05:58:36;97857.00;;;4.70
35582;BMP180;21687;48.900;9.188;2022-11-20T06:03:34;97847.00;;;4.80
35582;BMP180;21687;48.900;9.188;2022-11-20T06:06:02;97858.00;;;4.90
35582;BMP180;21687;48.900;9.188;2022-11-20T06:08:31;97863.00;;;4.90
35582;BMP180;21687;48.900;9.188;2022-11-20T06:11:02;97858.00;;;4.80
35582;BMP180;21687;48.900;9.188;2022-11-20T06:13:29;97857.00;;;4.90
35582;BMP180;21687;48.900;9.188;2022-11-20T06:15:55;97854.00;;;4.90
35582;BMP180;21687;48.900;9.188;2022-11-20T06:18:21;97851.00;;;4.90
35582;BMP180;21687;48.900;9.188;2022-11-20T06:20:48;97853.00;;;4.90
35582;BMP180;21687;48.900;9.188;2022-11-20T06:23:15;97848.00;;;4.90
35582;BMP180;21687;48.900;9.188;2022-11-20T06:25:43;97860.00;;;4.90
35582;BMP180;21687;48.900;9.188;2022-11-20T06:28:09;97844.00;;;4.90
35582;BMP180;21687;48.900;9.188;2022-11-20T06:30:36;97853.00;;;5.00
35582;BMP180;21687;48.900;9.188;2022-11-20T06:33:03;97855.00;;;5.00
35582;BMP180;21687;48.900;9.188;2022-11-20T06:35:29;97858.00;;;5.00
35582;BMP180;21687;48.900;9.188;2022-11-20T06:37:56;97852.00;;;5.00
35582;BMP180;21687;48.900;9.188;2022-11-20T06:40:23;97854.00;;;5.00
35582;BMP180;21687;48.900;9.188;2022-11-20T06:42:49;97850.00;;;5.00
35582;BMP180;21687;48.900;9.188;2022-11-20T06:45:15;97845.00;;;5.00
35582;BMP180;21687;48.900;9.188;2022-11-20T06:47:42;97856.00;;;5.00
35582;BMP180;21687;48.900;9.188;2022-11-20T06:50:08;97852.00;;;4.90
35582;BMP180;21687;48.900;9.188;2022-11-20T06:52:34;97856.00;;;4.90
35582;BMP180;21687;48.900;9.188;2022-11-20T06:55:01;97859.00;;;4.90
35582;BMP180;21687;48.900;9.188;2022-11-20T06:57:27;97858.00;;;4.90
35582;BMP180;21687;48.900;9.188;2022-11-20T06:59:54;97853.00;;;5.00
35582;BMP180;21687;48.900;9.188;2022-11-20T07:02:20;97853.00;;;5.00
35582;BMP180;21687;48.900;9.188;2022-11-20T07:04:47;97860.00;;;5.10
35582;BMP180;21687;48.900;9.188;2022-11-20T07:07:13;97864.00;;;5.10
35582;BMP180;21687;48.900;9.188;2022-11-20T07:09:39;97858.00;;;5.10
35582;BMP180;21687;48.900;9.188;2022-11-20T07:12:06;97866.00;;;5.10
35582;BMP180;21687;48.900;9.188;2022-11-20T07:14:32;97870.00;;;5.10
35582;BMP180;21687;48.900;9.188;2022-11-20T07:16:59;97870.00;;;5.10
35582;BMP180;21687;48.900;9.188;2022-11-20T07:19:25;97866.00;;;5.10
35582;BMP180;21687;48.900;9.188;2022-11-20T07:21:52;97870.00;;;5.20
35582;BMP180;21687;48.900;9.188;2022-11-20T07:24:18;97876.00;;;5.20
35582;BMP180;21687;48.900;9.188;2022-11-20T07:26:46;97876.00;;;5.30
35582;BMP180;21687;48.900;9.188;2022-11-20T07:29:15;97869.00;;;5.40
35582;BMP180;21687;48.900;9.188;2022-11-20T07:31:42;97883.00;;;5.40
35582;BMP180;21687;48.900;9.188;2022-11-20T07:34:09;97883.00;;;5.40
35582;BMP180;21687;48.900;9.188;2022-11-20T07:36:35;97885.00;;;5.40
35582;BMP180;21687;48.900;9.188;2022-11-20T07:39:02;97884.00;;;5.40
35582;BMP180;21687;48.900;9.188;2022-11-20T07:41:28;97880.00;;;5.30
35582;BMP180;21687;48.900;9.188;2022-11-20T07:43:55;97885.00;;;5.30
35582;BMP180;21687;48.900;9.188;2022-11-20T07:46:21;97888.00;;;5.30
35582;BMP180;21687;48.900;9.188;2022-11-20T07:48:48;97889.00;;;5.30
35582;BMP180;21687;48.900;9.188;2022-11-20T07:51:14;97882.00;;;5.30
35582;BMP180;21687;48.900;9.188;2022-11-20T07:53:41;97887.00;;;5.30
35582;BMP180;21687;48.900;9.188;2022-11-20T07:56:08;97900.00;;;5.30
35582;BMP180;21687;48.900;9.188;2022-11-20T07:58:35;97896.00;;;5.20
35582;BMP180;21687;48.900;9.188;2022-11-20T08:01:06;97896.00;;;5.20
35582;BMP180;21687;48.900;9.188;2022-11-20T08:03:33;97897.00;;;5.30
35582;BMP180;21687;48.900;9.188;2022-11-20T08:06:00;97893.00;;;5.20
35582;BMP180;21687;48.900;9.188;2022-11-20T08:08:27;97890.00;;;5.30
35582;BMP180;21687;48.900;9.188;2022-11-20T08:10:56;97890.00;;;5.30
35582;BMP180;21687;48.900;9.188;2022-11-20T08:13:42;97893.00;;;5.40
35582;BMP180;21687;48.900;9.188;2022-11-20T08:16:28;97883.00;;;5.50
35582;BMP180;21687;48.900;9.188;2022-11-20T08:18:55;97889.00;;;5.60
35582;BMP180;21687;48.900;9.188;2022-11-20T08:21:22;97892.00;;;5.70
35582;BMP180;21687;48.900;9.188;2022-11-20T08:23:48;97894.00;;;5.80
35582;BMP180;21687;48.900;9.188;2022-11-20T08:26:14;97899.00;;;5.90
35582;BMP180;21687;48.900;9.188;2022-11-20T08:28:41;97904.00;;;5.90
35582;BMP180;21687;48.900;9.188;2022-11-20T08:31:07;97903.00;;;6.00
35582;BMP180;21687;48.900;9.188;2022-11-20T08:33:36;97908.00;;;6.00
35582;BMP180;21687;48.900;9.188;2022-11-20T08:36:04;97903.00;;;6.00
35582;BMP180;21687;48.900;9.188;2022-11-20T08:38:31;97910.00;;;6.00
35582;BMP180;21687;48.900;9.188;2022-11-20T08:41:02;97911.00;;;6.00
35582;BMP180;21687;48.900;9.188;2022-11-20T08:46:18;97906.00;;;6.00
35582;BMP180;21687;48.900;9.188;2022-11-20T08:48:45;97909.00;;;6.00
35582;BMP180;21687;48.900;9.188;2022-11-20T08:51:12;97912.00;;;6.00
35582;BMP180;21687;48.900;9.188;2022-11-20T08:53:39;97910.00;;;6.00
35582;BMP180;21687;48.900;9.188;2022-11-20T08:56:06;97906.00;;;5.90
35582;BMP180;21687;48.900;9.188;2022-11-20T08:58:32;97914.00;;;5.90
35582;BMP180;21687;48.900;9.188;2022-11-20T09:00:58;97920.00;;;5.90
35582;BMP180;21687;48.900;9.188;2022-11-20T09:03:25;97922.00;;;5.90
35582;BMP180;21687;48.900;9.188;2022-11-20T09:06:01;97927.00;;;5.90
35582;BMP180;21687;48.900;9.188;2022-11-20T09:08:28;97930.00;;;6.00
35582;BMP180;21687;48.900;9.188;2022-11-20T09:10:56;97918.00;;;6.00
35582;BMP180;21687;48.900;9.188;2022-11-20T09:13:24;97928.00;;;6.00
35582;BMP180;21687;48.900;9.188;2022-11-20T09:16:01;97925.00;;;5.90
35582;BMP180;21687;48.900;9.188;2022-11-20T09:18:28;97927.00;;;5.90
35582;BMP180;21687;48.900;9.188;2022-11-20T09:21:02;97925.00;;;6.00
35582;BMP180;21687;48.900;9.188;2022-11-20T09:23:33;97936.00;;;6.00
35582;BMP180;21687;48.900;9.188;2022-11-20T09:26:04;97932.00;;;6.10
35582;BMP180;21687;48.900;9.188;2022-11-20T09:28:32;97937.00;;;6.00
35582;BMP180;21687;48.900;9.188;2022-11-20T09:30:59;97936.00;;;6.00
35582;BMP180;21687;48.900;9.188;2022-11-20T09:33:26;97943.00;;;6.00
35582;BMP180;21687;48.900;9.188;2022-11-20T09:35:52;97937.00;;;5.90
35582;BMP180;21687;48.900;9.188;2022-11-20T09:38:19;97933.00;;;5.90
35582;BMP180;21687;48.900;9.188;2022-11-20T09:40:59;97948.00;;;5.90
35582;BMP180;21687;48.900;9.188;2022-11-20T09:54:26;97966.00;;;6.40
35582;BMP180;21687;48.900;9.188;2022-11-20T09:57:05;97957.00;;;6.40
35582;BMP180;21687;48.900;9.188;2022-11-20T09:59:36;97956.00;;;6.50
35582;BMP180;21687;48.900;9.188;2022-11-20T10:04:52;97950.00;;;6.60
35582;BMP180;21687;48.900;9.188;2022-11-20T10:07:30;97951.00;;;6.60
35582;BMP180;21687;48.900;9.188;2022-11-20T10:10:03;97953.00;;;6.70
35582;BMP180;21687;48.900;9.188;2022-11-20T10:21:11;97957.00;;;6.70
35582;BMP180;21687;48.900;9.188;2022-11-20T10:26:40;97969.00;;;6.60
35582;BMP180;21687;48.900;9.188;2022-11-20T10:29:11;97963.00;;;6.50
35582;BMP180;21687;48.900;9.188;2022-11-20T10:31:40;97954.00;;;6.40
35582;BMP180;21687;48.900;9.188;2022-11-20T10:36:58;97960.00;;;6.40
35582;BMP180;21687;48.900;9.188;2022-11-20T10:42:37;97963.00;;;6.40
35582;BMP180;21687;48.900;9.188;2022-11-20T10:45:31;97963.00;;;6.40
35582;BMP180;21687;48.900;9.188;2022-11-20T10:48:20;97948.00;;;6.40
35582;BMP180;21687;48.900;9.188;2022-11-20T10:53:55;97949.00;;;6.10
35582;BMP180;21687;48.900;9.188;2022-11-20T10:56:35;97952.00;;;6.10
35582;BMP180;21687;48.900;9.188;2022-11-20T11:01:41;97940.00;;;6.00
35582;BMP180;21687;48.900;9.188;2022-11-20T11:06:58;97949.00;;;5.90
35582;BMP180;21687;48.900;9.188;2022-11-20T11:09:35;97942.00;;;5.90
35582;BMP180;21687;48.900;9.188;2022-11-20T11:14:51;97940.00;;;6.00
35582;BMP180;21687;48.900;9.188;2022-11-20T11:17:32;97925.00;;;6.10
35582;BMP180;21687;48.900;9.188;2022-11-20T11:22:30;97918.00;;;6.20
35582;BMP180;21687;48.900;9.188;2022-11-20T11:24:57;97916.00;;;6.30
35582;BMP180;21687;48.900;9.188;2022-11-20T11:27:23;97925.00;;;6.30
35582;BMP180;21687;48.900;9.188;2022-11-20T11:29:50;97909.00;;;6.60
35582;BMP180;21687;48.900;9.188;2022-11-20T11:32:27;97911.00;;;6.70
35582;BMP180;21687;48.900;9.188;2022-11-20T11:35:01;97908.00;;;6.90
35582;BMP180;21687;48.900;9.188;2022-11-20T11:37:33;97905.00;;;7.00
35582;BMP180;21687;48.900;9.188;2022-11-20T11:40:02;97914.00;;;7.10
35582;BMP180;21687;48.900;9.188;2022-11-20T11:42:29;97900.00;;;7.20
35582;BMP180;21687;48.900;9.188;2022-11-20T11:44:59;97893.00;;;7.20
35582;BMP180;21687;48.900;9.188;2022-11-20T11:47:45;97899.00;;;7.20
35582;BMP180;21687;48.900;9.188;2022-11-20T12:00:28;97877.00;;;6.80
35582;BMP180;21687;48.900;9.188;2022-11-20T12:03:17;97874.00;;;6.80
35582;BMP180;21687;48.900;9.188;2022-11-20T12:05:58;97874.00;;;6.80
35582;BMP180;21687;48.900;9.188;2022-11-20T12:08:53;97876.00;;;6.90
35582;BMP180;21687;48.900;9.188;2022-11-20T12:14:31;97883.00;;;7.30
35582;BMP180;21687;48.900;9.188;2022-11-20T12:16:59;97876.00;;;7.40
35582;BMP180;21687;48.900;9.188;2022-11-20T12:19:28;97875.00;;;7.30
35582;BMP180;21687;48.900;9.188;2022-11-20T12:30:19;97867.00;;;7.30
35582;BMP180;21687;48.900;9.188;2022-11-20T12:44:31;97848.00;;;7.60
35582;BMP180;21687;48.900;9.188;2022-11-20T12:50:11;97856.00;;;7.70
35582;BMP180;21687;48.900;9.188;2022-11-20T12:52:52;97862.00;;;7.80
35582;BMP180;21687;48.900;9.188;2022-11-20T13:00:56;97853.00;;;7.80
35582;BMP180;21687;48.900;9.188;2022-11-20T13:06:09;97848.00;;;7.80
35582;BMP180;21687;48.900;9.188;2022-11-20T13:08:41;97858.00;;;7.90
35582;BMP180;21687;48.900;9.188;2022-11-20T13:11:24;97865.00;;;7.90
35582;BMP180;21687;48.900;9.188;2022-11-20T13:16:32;97863.00;;;8.00
35582;BMP180;21687;48.900;9.188;2022-11-20T13:19:08;97854.00;;;8.00
35582;BMP180;21687;48.900;9.188;2022-11-20T13:21:38;97870.00;;;7.90
35582;BMP180;21687;48.900;9.188;2022-11-20T13:24:28;97861.00;;;7.90
35582;BMP180;21687;48.900;9.188;2022-11-20T13:29:37;97853.00;;;8.10
35582;BMP180;21687;48.900;9.188;2022-11-20T13:32:18;97851.00;;;8.10
35582;BMP180;21687;48.900;9.188;2022-11-20T13:34:58;97850.00;;;8.20
35582;BMP180;21687;48.900;9.188;2022-11-20T13:37:29;97848.00;;;8.20
35582;BMP180;21687;48.900;9.188;2022-11-20T13:42:39;97833.00;;;8.20
35582;BMP180;21687;48.900;9.188;2022-11-20T13:45:21;97837.00;;;8.30
35582;BMP180;21687;48.900;9.188;2022-11-20T13:47:49;97839.00;;;8.20
35582;BMP180;21687;48.900;9.188;2022-11-20T13:50:16;97828.00;;;8.10
35582;BMP180;21687;48.900;9.188;2022-11-20T13:52:55;97833.00;;;8.10
35582;BMP180;21687;48.900;9.188;2022-11-20T13:55:49;97834.00;;;8.10
35582;BMP180;21687;48.900;9.188;2022-11-20T13:58:59;97823.00;;;8.00
35582;BMP180;21687;48.900;9.188;2022-11-20T14:01:30;97840.00;;;8.10
35582;BMP180;21687;48.900;9.188;2022-11-20T14:03:58;97835.00;;;8.00
35582;BMP180;21687;48.900;9.188;2022-11-20T14:06:28;97837.00;;;8.00
35582;BMP180;21687;48.900;9.188;2022-11-20T14:08:59;97839.00;;;7.90
35582;BMP180;21687;48.900;9.188;2022-11-20T14:11:28;97830.00;;;7.80
35582;BMP180;21687;48.900;9.188;2022-11-20T14:13:59;97839.00;;;7.70
35582;BMP180;21687;48.900;9.188;2022-11-20T14:16:28;97834.00;;;7.70
35582;BMP180;21687;48.900;9.188;2022-11-20T14:18:55;97832.00;;;7.70
35582;BMP180;21687;48.900;9.188;2022-11-20T14:21:29;97835.00;;;7.60
35582;BMP180;21687;48.900;9.188;2022-11-20T14:24:12;97836.00;;;7.70
35582;BMP180;21687;48.900;9.188;2022-11-20T14:26:43;97836.00;;;7.60
35582;BMP180;21687;48.900;9.188;2022-11-20T14:29:17;97838.00;;;7.50
35582;BMP180;21687;48.900;9.188;2022-11-20T14:31:45;97842.00;;;7.40
35582;BMP180;21687;48.900;9.188;2022-11-20T14:34:22;97843.00;;;7.30
35582;BMP180;21687;48.900;9.188;2022-11-20T14:36:50;97844.00;;;7.30
35582;BMP180;21687;48.900;9.188;2022-11-20T14:39:21;97832.00;;;7.10
35582;BMP180;21687;48.900;9.188;2022-11-20T14:41:54;97834.00;;;7.00
35582;BMP180;21687;48.900;9.188;2022-11-20T14:44:26;97824.00;;;7.00
35582;BMP180;21687;48.900;9.188;2022-11-20T14:46:53;97813.00;;;6.90
35582;BMP180;21687;48.900;9.188;2022-11-20T14:49:21;97820.00;;;6.90
35582;BMP180;21687;48.900;9.188;2022-11-20T14:51:57;97817.00;;;6.80
35582;BMP180;21687;48.900;9.188;2022-11-20T14:54:24;97801.00;;;6.80
35582;BMP180;21687;48.900;9.188;2022-11-20T14:57:02;97798.00;;;6.80
35582;BMP180;21687;48.900;9.188;2022-11-20T14:59:34;97790.00;;;6.70
35582;BMP180;21687;48.900;9.188;2022-11-20T15:02:09;97790.00;;;6.60
35582;BMP180;21687;48.900;9.188;2022-11-20T15:04:58;97785.00;;;6.40
35582;BMP180;21687;48.900;9.188;2022-11-20T15:07:33;97801.00;;;6.30
35582;BMP180;21687;48.900;9.188;2022-11-20T15:16:04;97785.00;;;6.10
35582;BMP180;21687;48.900;9.188;2022-11-20T15:18:05;97788.00;;;6.10
35582;BMP180;21687;48.900;9.188;2022-11-20T15:20:32;97780.00;;;5.90
35582;BMP180;21687;48.900;9.188;2022-11-20T15:22:59;97783.00;;;5.90
35582;BMP180;21687;48.900;9.188;2022-11-20T15:25:26;97775.00;;;5.70
35582;BMP180;21687;48.900;9.188;2022-11-20T15:27:56;97778.00;;;5.70
35582;BMP180;21687;48.900;9.188;2022-11-20T15:30:23;97773.00;;;5.60
35582;BMP180;21687;48.900;9.188;2022-11-20T15:32:50;97785.00;;;5.60
35582;BMP180;21687;48.900;9.188;2022-11-20T15:35:16;97779.00;;;5.50
35582;BMP180;21687;48.900;9.188;2022-11-20T15:37:43;97769.00;;;5.40
35582;BMP180;21687;48.900;9.188;2022-11-20T15:40:10;97777.00;;;5.30
35582;BMP180;21687;48.900;9.188;2022-11-20T15:42:37;97778.00;;;5.30
35582;BMP180;21687;48.900;9.188;2022-11-20T15:45:03;97774.00;;;5.30
35582;BMP180;21687;48.900;9.188;2022-11-20T15:47:31;97760.00;;;5.20
35582;BMP180;21687;48.900;9.188;2022-11-20T15:49:58;97772.00;;;5.20
35582;BMP180;21687;48.900;9.188;2022-11-20T15:52:25;97760.00;;;5.30
35582;BMP180;21687;48.900;9.188;2022-11-20T15:54:51;97765.00;;;5.30
35582;BMP180;21687;48.900;9.188;2022-11-20T15:57:18;97760.00;;;5.30
35582;BMP180;21687;48.900;9.188;2022-11-20T15:59:44;97759.00;;;5.30
35582;BMP180;21687;48.900;9.188;2022-11-20T16:02:15;97757.00;;;5.20
35582;BMP180;21687;48.900;9.188;2022-11-20T16:04:41;97767.00;;;5.20
35582;BMP180;21687;48.900;9.188;2022-11-20T16:07:08;97762.00;;;5.10
35582;BMP180;21687;48.900;9.188;2022-11-20T16:09:34;97754.00;;;5.10
35582;BMP180;21687;48.900;9.188;2022-11-20T16:12:00;97757.00;;;5.10
35582;BMP180;21687;48.900;9.188;2022-11-20T16:14:27;97744.00;;;5.20
35582;BMP180;21687;48.900;9.188;2022-11-20T16:17:13;97745.00;;;5.20
35582;BMP180;21687;48.900;9.188;2022-11-20T16:19:39;97749.00;;;5.20
35582;BMP180;21687;48.900;9.188;2022-11-20T16:22:05;97741.00;;;5.20
35582;BMP180;21687;48.900;9.188;2022-11-20T16:24:32;97746.00;;;5.20
35582;BMP180;21687;48.900;9.188;2022-11-20T16:26:58;97737.00;;;5.20
35582;BMP180;21687;48.900;9.188;2022-11-20T16:29:24;97736.00;;;5.30
35582;BMP180;21687;48.900;9.188;2022-11-20T16:31:50;97732.00;;;5.30
35582;BMP180;21687;48.900;9.188;2022-11-20T16:34:17;97739.00;;;5.30